sensor_id;sensor_type;location;lat;lon;timestamp;P1;durP1;ratioP1;P2;durP2;ratioP2
9834;SDS011;4956;50.996;13.716;2023-02-10T00:00:11;17.90;;;10.25;;
9834;SDS011;4956;50.996;13.716;2023-02-10T00:03:32;18.90;;;10.50;;
9834;SDS011;4956;50.996;13.716;2023-02-10T00:06:52;18.48;;;10.68;;
9834;SDS011;4956;50.996;13.716;2023-02-10T00:10:13;18.17;;;10.32;;
9834;SDS011;4956;50.996;13.716;2023-02-10T00:13:33;18.23;;;10.50;;
9834;SDS011;4956;50.996;13.716;2023-02-10T00:16:53;19.30;;;10.95;;
9834;SDS011;4956;50.996;13.716;2023-02-10T00:20:14;18.70;;;10.55;;
9834;SDS011;4956;50.996;13.716;2023-02-10T00:23:35;18.00;;;9.45;;
9834;SDS011;4956;50.996;13.716;2023-02-10T00:26:56;17.23;;;9.80;;
9834;SDS011;4956;50.996;13.716;2023-02-10T00:30:16;17.05;;;9.80;;
9834;SDS011;4956;50.996;13.716;2023-02-10T00:33:36;19.33;;;10.15;;
9834;SDS011;4956;50.996;13.716;2023-02-10T00:36:57;18.77;;;10.65;;
9834;SDS011;4956;50.996;13.716;2023-02-10T00:40:17;15.85;;;9.10;;
9834;SDS011;4956;50.996;13.716;2023-02-10T00:43:37;19.02;;;9.80;;
9834;SDS011;4956;50.996;13.716;2023-02-10T00:46:59;20.88;;;11.10;;
9834;SDS011;4956;50.996;13.716;2023-02-10T00:50:20;21.15;;;10.35;;
9834;SDS011;4956;50.996;13.716;2023-02-10T00:53:40;17.52;;;9.95;;
9834;SDS011;4956;50.996;13.716;2023-02-10T00:57:01;17.92;;;10.43;;
9834;SDS011;4956;50.996;13.716;2023-02-10T01:00:21;20.85;;;10.25;;
9834;SDS011;4956;50.996;13.716;2023-02-10T01:03:41;18.35;;;10.43;;
9834;SDS011;4956;50.996;13.716;2023-02-10T01:07:02;19.30;;;10.20;;
9834;SDS011;4956;50.996;13.716;2023-02-10T01:10:24;16.40;;;9.60;;
9834;SDS011;4956;50.996;13.716;2023-02-10T01:13:44;15.45;;;9.45;;
9834;SDS011;4956;50.996;13.716;2023-02-10T01:17:04;17.77;;;9.95;;
9834;SDS011;4956;50.996;13.716;2023-02-10T01:20:25;18.67;;;10.88;;
9834;SDS011;4956;50.996;13.716;2023-02-10T01:23:46;20.88;;;10.00;;
9834;SDS011;4956;50.996;13.716;2023-02-10T01:27:07;18.38;;;9.68;;
9834;SDS011;4956;50.996;13.716;2023-02-10T01:30:27;21.88;;;10.48;;
9834;SDS011;4956;50.996;13.716;2023-02-10T01:33:50;17.38;;;9.45;;
9834;SDS011;4956;50.996;13.716;2023-02-10T01:37:10;21.08;;;10.60;;
9834;SDS011;4956;50.996;13.716;2023-02-10T01:40:31;23.23;;;10.07;;
9834;SDS011;4956;50.996;13.716;2023-02-10T01:43:56;17.35;;;9.80;;
9834;SDS011;4956;50.996;13.716;2023-02-10T01:47:19;18.33;;;9.50;;
9834;SDS011;4956;50.996;13.716;2023-02-10T01:50:45;17.73;;;9.90;;
9834;SDS011;4956;50.996;13.716;2023-02-10T01:54:10;17.23;;;9.73;;
9834;SDS011;4956;50.996;13.716;2023-02-10T01:57:33;20.05;;;10.27;;
9834;SDS011;4956;50.996;13.716;2023-02-10T02:00:53;18.30;;;10.45;;
9834;SDS011;4956;50.996;13.716;2023-02-10T02:04:14;17.83;;;10.05;;
9834;SDS011;4956;50.996;13.716;2023-02-10T02:07:35;19.15;;;10.15;;
9834;SDS011;4956;50.996;13.716;2023-02-10T02:14:41;18.45;;;9.88;;
9834;SDS011;4956;50.996;13.716;2023-02-10T02:36:40;17.33;;;9.70;;
9834;SDS011;4956;50.996;13.716;2023-02-10T02:40:03;18.55;;;9.85;;
9834;SDS011;4956;50.996;13.716;2023-02-10T02:43:24;17.40;;;9.90;;
9834;SDS011;4956;50.996;13.716;2023-02-10T02:50:19;19.05;;;10.20;;
9834;SDS011;4956;50.996;13.716;2023-02-10T02:53:56;18.70;;;10.13;;
9834;SDS011;4956;50.996;13.716;2023-02-10T03:00:56;16.73;;;10.07;;
9834;SDS011;4956;50.996;13.716;2023-02-10T03:04:26;20.17;;;10.23;;
9834;SDS011;4956;50.996;13.716;2023-02-10T03:07:48;19.38;;;10.82;;
9834;SDS011;4956;50.996;13.716;2023-02-10T03:11:09;18.20;;;10.52;;
9834;SDS011;4956;50.996;13.716;2023-02-10T03:14:29;21.40;;;10.88;;
9834;SDS011;4956;50.996;13.716;2023-02-10T03:17:49;18.83;;;10.73;;
9834;SDS011;4956;50.996;13.716;2023-02-10T03:21:10;21.42;;;11.10;;
9834;SDS011;4956;50.996;13.716;2023-02-10T03:24:30;17.77;;;9.93;;
9834;SDS011;4956;50.996;13.716;2023-02-10T03:27:50;22.50;;;11.35;;
9834;SDS011;4956;50.996;13.716;2023-02-10T03:31:10;20.48;;;11.70;;
9834;SDS011;4956;50.996;13.716;2023-02-10T03:34:31;21.67;;;11.43;;
9834;SDS011;4956;50.996;13.716;2023-02-10T03:37:51;21.23;;;11.27;;
9834;SDS011;4956;50.996;13.716;2023-02-10T03:41:12;20.00;;;10.85;;
9834;SDS011;4956;50.996;13.716;2023-02-10T03:44:33;21.75;;;11.73;;
9834;SDS011;4956;50.996;13.716;2023-02-10T03:47:53;22.05;;;11.52;;
9834;SDS011;4956;50.996;13.716;2023-02-10T03:51:13;21.52;;;11.95;;
9834;SDS011;4956;50.996;13.716;2023-02-10T03:54:34;20.70;;;11.05;;
9834;SDS011;4956;50.996;13.716;2023-02-10T03:57:54;20.90;;;11.65;;
9834;SDS011;4956;50.996;13.716;2023-02-10T04:01:15;20.88;;;11.88;;
9834;SDS011;4956;50.996;13.716;2023-02-10T04:04:36;23.25;;;11.73;;
9834;SDS011;4956;50.996;13.716;2023-02-10T04:07:57;22.77;;;12.00;;
9834;SDS011;4956;50.996;13.716;2023-02-10T04:11:17;23.02;;;12.43;;
9834;SDS011;4956;50.996;13.716;2023-02-10T04:14:39;22.20;;;12.07;;
9834;SDS011;4956;50.996;13.716;2023-02-10T04:17:59;21.10;;;11.85;;
9834;SDS011;4956;50.996;13.716;2023-02-10T04:21:19;21.73;;;11.93;;
9834;SDS011;4956;50.996;13.716;2023-02-10T04:24:40;22.42;;;12.07;;
9834;SDS011;4956;50.996;13.716;2023-02-10T04:28:00;22.08;;;13.10;;
9834;SDS011;4956;50.996;13.716;2023-02-10T04:31:20;23.13;;;12.27;;
9834;SDS011;4956;50.996;13.716;2023-02-10T04:34:41;23.05;;;12.32;;
9834;SDS011;4956;50.996;13.716;2023-02-10T04:38:01;22.85;;;11.80;;
9834;SDS011;4956;50.996;13.716;2023-02-10T04:41:23;20.50;;;11.05;;
9834;SDS011;4956;50.996;13.716;2023-02-10T04:44:43;21.27;;;11.73;;
9834;SDS011;4956;50.996;13.716;2023-02-10T04:48:04;22.92;;;12.55;;
9834;SDS011;4956;50.996;13.716;2023-02-10T04:51:24;22.23;;;11.63;;
9834;SDS011;4956;50.996;13.716;2023-02-10T04:54:45;23.77;;;13.40;;
9834;SDS011;4956;50.996;13.716;2023-02-10T04:58:06;24.55;;;13.15;;
9834;SDS011;4956;50.996;13.716;2023-02-10T05:01:26;21.67;;;11.82;;
9834;SDS011;4956;50.996;13.716;2023-02-10T05:04:47;24.63;;;12.82;;
9834;SDS011;4956;50.996;13.716;2023-02-10T05:08:07;26.77;;;14.73;;
9834;SDS011;4956;50.996;13.716;2023-02-10T05:11:27;26.88;;;14.85;;
9834;SDS011;4956;50.996;13.716;2023-02-10T05:14:47;26.90;;;14.43;;
9834;SDS011;4956;50.996;13.716;2023-02-10T05:18:08;27.73;;;15.73;;
9834;SDS011;4956;50.996;13.716;2023-02-10T05:21:28;25.75;;;14.75;;
9834;SDS011;4956;50.996;13.716;2023-02-10T05:24:48;28.35;;;15.38;;
9834;SDS011;4956;50.996;13.716;2023-02-10T05:28:11;26.83;;;15.35;;
9834;SDS011;4956;50.996;13.716;2023-02-10T05:31:32;27.70;;;15.57;;
9834;SDS011;4956;50.996;13.716;2023-02-10T05:34:53;28.38;;;15.73;;
9834;SDS011;4956;50.996;13.716;2023-02-10T05:38:13;29.33;;;16.20;;
9834;SDS011;4956;50.996;13.716;2023-02-10T05:41:33;31.00;;;16.70;;
9834;SDS011;4956;50.996;13.716;2023-02-10T05:44:53;30.02;;;16.42;;
9834;SDS011;4956;50.996;13.716;2023-02-10T05:48:14;28.52;;;16.35;;
9834;SDS011;4956;50.996;13.716;2023-02-10T05:51:34;31.00;;;17.05;;
9834;SDS011;4956;50.996;13.716;2023-02-10T05:54:54;30.67;;;16.33;;
9834;SDS011;4956;50.996;13.716;2023-02-10T05:58:15;30.23;;;17.75;;
9834;SDS011;4956;50.996;13.716;2023-02-10T06:01:35;31.02;;;17.35;;
9834;SDS011;4956;50.996;13.716;2023-02-10T06:04:55;32.65;;;17.60;;
9834;SDS011;4956;50.996;13.716;2023-02-10T06:08:16;36.47;;;19.42;;
9834;SDS011;4956;50.996;13.716;2023-02-10T06:11:36;34.03;;;18.25;;
9834;SDS011;4956;50.996;13.716;2023-02-10T06:14:56;33.20;;;18.00;;
9834;SDS011;4956;50.996;13.716;2023-02-10T06:18:17;32.25;;;17.50;;
9834;SDS011;4956;50.996;13.716;2023-02-10T06:21:40;29.50;;;16.17;;
9834;SDS011;4956;50.996;13.716;2023-02-10T06:25:00;33.25;;;17.02;;
9834;SDS011;4956;50.996;13.716;2023-02-10T06:28:21;32.25;;;18.02;;
9834;SDS011;4956;50.996;13.716;2023-02-10T06:31:42;35.25;;;18.65;;
9834;SDS011;4956;50.996;13.716;2023-02-10T06:35:02;33.65;;;18.02;;
9834;SDS011;4956;50.996;13.716;2023-02-10T06:38:23;32.97;;;18.17;;
9834;SDS011;4956;50.996;13.716;2023-02-10T06:41:43;34.10;;;18.38;;
9834;SDS011;4956;50.996;13.716;2023-02-10T06:45:04;36.90;;;18.67;;
9834;SDS011;4956;50.996;13.716;2023-02-10T06:48:25;34.33;;;18.88;;
9834;SDS011;4956;50.996;13.716;2023-02-10T06:51:46;34.83;;;19.00;;
9834;SDS011;4956;50.996;13.716;2023-02-10T06:55:06;34.58;;;19.13;;
9834;SDS011;4956;50.996;13.716;2023-02-10T06:58:27;35.95;;;19.63;;
9834;SDS011;4956;50.996;13.716;2023-02-10T07:01:47;37.17;;;19.10;;
9834;SDS011;4956;50.996;13.716;2023-02-10T07:05:08;33.90;;;19.42;;
9834;SDS011;4956;50.996;13.716;2023-02-10T07:08:29;37.22;;;18.83;;
9834;SDS011;4956;50.996;13.716;2023-02-10T07:11:50;34.72;;;20.23;;
9834;SDS011;4956;50.996;13.716;2023-02-10T07:15:10;37.63;;;20.70;;
9834;SDS011;4956;50.996;13.716;2023-02-10T07:18:31;37.08;;;20.30;;
9834;SDS011;4956;50.996;13.716;2023-02-10T07:21:51;36.55;;;20.48;;
9834;SDS011;4956;50.996;13.716;2023-02-10T07:25:11;39.15;;;20.80;;
9834;SDS011;4956;50.996;13.716;2023-02-10T07:28:32;33.92;;;19.70;;
9834;SDS011;4956;50.996;13.716;2023-02-10T07:31:53;34.65;;;20.00;;
9834;SDS011;4956;50.996;13.716;2023-02-10T07:35:13;39.97;;;21.25;;
9834;SDS011;4956;50.996;13.716;2023-02-10T07:38:34;35.83;;;20.67;;
9834;SDS011;4956;50.996;13.716;2023-02-10T07:41:54;36.83;;;20.40;;
9834;SDS011;4956;50.996;13.716;2023-02-10T07:45:21;40.38;;;22.48;;
9834;SDS011;4956;50.996;13.716;2023-02-10T07:48:41;37.03;;;21.17;;
9834;SDS011;4956;50.996;13.716;2023-02-10T07:52:02;40.95;;;21.33;;
9834;SDS011;4956;50.996;13.716;2023-02-10T07:55:22;39.95;;;21.15;;
9834;SDS011;4956;50.996;13.716;2023-02-10T07:58:43;39.03;;;22.10;;
9834;SDS011;4956;50.996;13.716;2023-02-10T08:02:04;39.67;;;20.83;;
9834;SDS011;4956;50.996;13.716;2023-02-10T08:05:24;40.13;;;22.15;;
9834;SDS011;4956;50.996;13.716;2023-02-10T08:08:46;40.90;;;22.45;;
9834;SDS011;4956;50.996;13.716;2023-02-10T08:12:06;39.95;;;22.90;;
9834;SDS011;4956;50.996;13.716;2023-02-10T08:15:27;39.13;;;22.25;;
9834;SDS011;4956;50.996;13.716;2023-02-10T08:18:47;41.80;;;23.00;;
9834;SDS011;4956;50.996;13.716;2023-02-10T08:22:07;39.83;;;22.58;;
9834;SDS011;4956;50.996;13.716;2023-02-10T08:25:28;44.22;;;23.25;;
9834;SDS011;4956;50.996;13.716;2023-02-10T08:28:49;45.05;;;23.35;;
9834;SDS011;4956;50.996;13.716;2023-02-10T08:32:09;43.50;;;23.70;;
9834;SDS011;4956;50.996;13.716;2023-02-10T08:35:30;43.88;;;23.23;;
9834;SDS011;4956;50.996;13.716;2023-02-10T08:38:50;43.55;;;23.88;;
9834;SDS011;4956;50.996;13.716;2023-02-10T08:42:11;45.78;;;24.50;;
9834;SDS011;4956;50.996;13.716;2023-02-10T08:45:31;43.90;;;24.33;;
9834;SDS011;4956;50.996;13.716;2023-02-10T08:48:51;44.50;;;23.67;;
9834;SDS011;4956;50.996;13.716;2023-02-10T08:52:12;44.30;;;23.83;;
9834;SDS011;4956;50.996;13.716;2023-02-10T08:55:32;42.30;;;23.17;;
9834;SDS011;4956;50.996;13.716;2023-02-10T08:58:52;43.80;;;23.98;;
9834;SDS011;4956;50.996;13.716;2023-02-10T09:02:13;44.95;;;24.13;;
9834;SDS011;4956;50.996;13.716;2023-02-10T09:05:34;45.72;;;24.10;;
9834;SDS011;4956;50.996;13.716;2023-02-10T09:08:55;43.58;;;24.38;;
9834;SDS011;4956;50.996;13.716;2023-02-10T09:12:16;45.65;;;23.73;;
9834;SDS011;4956;50.996;13.716;2023-02-10T09:15:37;45.65;;;24.98;;
9834;SDS011;4956;50.996;13.716;2023-02-10T09:18:58;45.58;;;25.05;;
9834;SDS011;4956;50.996;13.716;2023-02-10T09:22:19;46.67;;;24.58;;
9834;SDS011;4956;50.996;13.716;2023-02-10T09:25:39;47.25;;;25.45;;
9834;SDS011;4956;50.996;13.716;2023-02-10T09:28:59;49.85;;;25.90;;
9834;SDS011;4956;50.996;13.716;2023-02-10T09:32:19;51.83;;;25.98;;
9834;SDS011;4956;50.996;13.716;2023-02-10T09:35:40;48.00;;;25.77;;
9834;SDS011;4956;50.996;13.716;2023-02-10T09:39:00;52.20;;;26.38;;
9834;SDS011;4956;50.996;13.716;2023-02-10T09:46:15;51.50;;;26.38;;
9834;SDS011;4956;50.996;13.716;2023-02-10T09:49:45;52.20;;;26.90;;
9834;SDS011;4956;50.996;13.716;2023-02-10T09:53:13;54.47;;;27.00;;
9834;SDS011;4956;50.996;13.716;2023-02-10T09:56:38;49.22;;;27.42;;
9834;SDS011;4956;50.996;13.716;2023-02-10T09:59:59;51.85;;;27.80;;
9834;SDS011;4956;50.996;13.716;2023-02-10T10:03:28;51.58;;;26.02;;
9834;SDS011;4956;50.996;13.716;2023-02-10T10:06:55;50.47;;;25.95;;
9834;SDS011;4956;50.996;13.716;2023-02-10T10:10:27;54.35;;;27.85;;
9834;SDS011;4956;50.996;13.716;2023-02-10T10:13:53;51.35;;;25.70;;
9834;SDS011;4956;50.996;13.716;2023-02-10T10:17:35;49.22;;;25.80;;
9834;SDS011;4956;50.996;13.716;2023-02-10T10:21:19;51.13;;;26.55;;
9834;SDS011;4956;50.996;13.716;2023-02-10T10:25:31;53.95;;;25.98;;
9834;SDS011;4956;50.996;13.716;2023-02-10T10:28:49;51.35;;;24.73;;
9834;SDS011;4956;50.996;13.716;2023-02-10T10:36:05;46.70;;;24.20;;
9834;SDS011;4956;50.996;13.716;2023-02-10T10:39:30;44.92;;;23.83;;
9834;SDS011;4956;50.996;13.716;2023-02-10T10:42:55;43.97;;;22.85;;
9834;SDS011;4956;50.996;13.716;2023-02-10T10:49:50;42.40;;;22.52;;
9834;SDS011;4956;50.996;13.716;2023-02-10T10:53:14;44.05;;;23.63;;
9834;SDS011;4956;50.996;13.716;2023-02-10T11:03:39;45.20;;;23.60;;
9834;SDS011;4956;50.996;13.716;2023-02-10T11:06:59;43.55;;;23.73;;
9834;SDS011;4956;50.996;13.716;2023-02-10T11:10:22;46.58;;;23.38;;
9834;SDS011;4956;50.996;13.716;2023-02-10T11:13:52;46.95;;;24.25;;
9834;SDS011;4956;50.996;13.716;2023-02-10T11:17:18;47.10;;;24.13;;
9834;SDS011;4956;50.996;13.716;2023-02-10T11:20:52;48.00;;;24.88;;
9834;SDS011;4956;50.996;13.716;2023-02-10T11:24:24;51.75;;;26.77;;
9834;SDS011;4956;50.996;13.716;2023-02-10T11:28:05;57.53;;;27.80;;
9834;SDS011;4956;50.996;13.716;2023-02-10T11:31:28;55.13;;;27.83;;
9834;SDS011;4956;50.996;13.716;2023-02-10T11:34:52;51.55;;;28.02;;
9834;SDS011;4956;50.996;13.716;2023-02-10T11:38:21;51.40;;;27.23;;
9834;SDS011;4956;50.996;13.716;2023-02-10T11:41:44;54.22;;;27.25;;
9834;SDS011;4956;50.996;13.716;2023-02-10T11:48:28;47.53;;;24.55;;
9834;SDS011;4956;50.996;13.716;2023-02-10T11:51:52;47.08;;;24.83;;
9834;SDS011;4956;50.996;13.716;2023-02-10T11:55:14;50.85;;;25.17;;
9834;SDS011;4956;50.996;13.716;2023-02-10T11:58:39;51.80;;;25.60;;
9834;SDS011;4956;50.996;13.716;2023-02-10T12:06:18;49.33;;;25.10;;
9834;SDS011;4956;50.996;13.716;2023-02-10T12:17:02;46.42;;;24.90;;
9834;SDS011;4956;50.996;13.716;2023-02-10T12:24:20;52.53;;;26.38;;
9834;SDS011;4956;50.996;13.716;2023-02-10T12:27:51;49.17;;;26.10;;
9834;SDS011;4956;50.996;13.716;2023-02-10T12:31:21;47.78;;;25.48;;
9834;SDS011;4956;50.996;13.716;2023-02-10T12:46:05;46.95;;;24.60;;
9834;SDS011;4956;50.996;13.716;2023-02-10T12:53:48;44.88;;;22.70;;
9834;SDS011;4956;50.996;13.716;2023-02-10T12:57:12;42.08;;;23.02;;
9834;SDS011;4956;50.996;13.716;2023-02-10T13:00:37;44.20;;;23.70;;
9834;SDS011;4956;50.996;13.716;2023-02-10T13:04:08;40.33;;;22.08;;
9834;SDS011;4956;50.996;13.716;2023-02-10T13:11:07;44.15;;;22.83;;
9834;SDS011;4956;50.996;13.716;2023-02-10T13:14:31;41.00;;;21.73;;
9834;SDS011;4956;50.996;13.716;2023-02-10T13:17:52;38.10;;;20.77;;
9834;SDS011;4956;50.996;13.716;2023-02-10T13:21:17;39.63;;;21.13;;
9834;SDS011;4956;50.996;13.716;2023-02-10T13:28:28;40.45;;;20.92;;
9834;SDS011;4956;50.996;13.716;2023-02-10T13:32:17;37.35;;;19.45;;
9834;SDS011;4956;50.996;13.716;2023-02-10T13:35:44;38.38;;;19.65;;
9834;SDS011;4956;50.996;13.716;2023-02-10T13:39:15;36.83;;;20.33;;
9834;SDS011;4956;50.996;13.716;2023-02-10T13:42:38;36.90;;;18.08;;
9834;SDS011;4956;50.996;13.716;2023-02-10T13:45:59;35.90;;;18.83;;
9834;SDS011;4956;50.996;13.716;2023-02-10T13:49:20;35.10;;;18.80;;
9834;SDS011;4956;50.996;13.716;2023-02-10T13:52:53;38.42;;;20.10;;
9834;SDS011;4956;50.996;13.716;2023-02-10T13:59:40;33.67;;;17.58;;
9834;SDS011;4956;50.996;13.716;2023-02-10T14:03:02;35.20;;;17.17;;
9834;SDS011;4956;50.996;13.716;2023-02-10T14:06:33;26.58;;;15.05;;
9834;SDS011;4956;50.996;13.716;2023-02-10T14:10:00;28.13;;;15.25;;
9834;SDS011;4956;50.996;13.716;2023-02-10T14:13:22;30.42;;;15.57;;
9834;SDS011;4956;50.996;13.716;2023-02-10T14:16:46;27.45;;;14.60;;
9834;SDS011;4956;50.996;13.716;2023-02-10T14:20:14;28.05;;;14.73;;
9834;SDS011;4956;50.996;13.716;2023-02-10T14:23:39;28.45;;;15.43;;
9834;SDS011;4956;50.996;13.716;2023-02-10T14:27:01;26.25;;;13.32;;
9834;SDS011;4956;50.996;13.716;2023-02-10T14:30:26;24.80;;;13.35;;
9834;SDS011;4956;50.996;13.716;2023-02-10T14:33:55;25.20;;;13.77;;
9834;SDS011;4956;50.996;13.716;2023-02-10T14:37:18;24.88;;;13.38;;
9834;SDS011;4956;50.996;13.716;2023-02-10T14:40:40;24.50;;;13.13;;
9834;SDS011;4956;50.996;13.716;2023-02-10T14:44:03;24.10;;;12.82;;
9834;SDS011;4956;50.996;13.716;2023-02-10T14:50:56;21.85;;;11.95;;
9834;SDS011;4956;50.996;13.716;2023-02-10T14:54:25;21.42;;;11.55;;
9834;SDS011;4956;50.996;13.716;2023-02-10T14:57:46;20.85;;;11.55;;
9834;SDS011;4956;50.996;13.716;2023-02-10T15:01:26;22.52;;;11.85;;
9834;SDS011;4956;50.996;13.716;2023-02-10T15:04:48;19.98;;;11.27;;
9834;SDS011;4956;50.996;13.716;2023-02-10T15:08:09;19.65;;;10.52;;
9834;SDS011;4956;50.996;13.716;2023-02-10T15:11:37;19.02;;;10.27;;
9834;SDS011;4956;50.996;13.716;2023-02-10T15:15:39;18.45;;;9.60;;
9834;SDS011;4956;50.996;13.716;2023-02-10T15:19:03;17.92;;;9.82;;
9834;SDS011;4956;50.996;13.716;2023-02-10T15:22:38;22.55;;;10.80;;
9834;SDS011;4956;50.996;13.716;2023-02-10T15:26:24;20.77;;;10.88;;
9834;SDS011;4956;50.996;13.716;2023-02-10T15:29:46;23.67;;;11.27;;
9834;SDS011;4956;50.996;13.716;2023-02-10T15:33:10;22.35;;;11.50;;
9834;SDS011;4956;50.996;13.716;2023-02-10T15:36:45;22.92;;;11.57;;
9834;SDS011;4956;50.996;13.716;2023-02-10T15:43:46;22.98;;;12.57;;
9834;SDS011;4956;50.996;13.716;2023-02-10T15:50:37;30.08;;;14.23;;
9834;SDS011;4956;50.996;13.716;2023-02-10T15:53:57;25.15;;;14.07;;
9834;SDS011;4956;50.996;13.716;2023-02-10T15:57:18;24.58;;;12.93;;
9834;SDS011;4956;50.996;13.716;2023-02-10T16:00:39;21.90;;;13.27;;
9834;SDS011;4956;50.996;13.716;2023-02-10T16:04:01;28.00;;;14.10;;
9834;SDS011;4956;50.996;13.716;2023-02-10T16:07:23;28.00;;;14.90;;
9834;SDS011;4956;50.996;13.716;2023-02-10T16:10:46;27.67;;;14.63;;
9834;SDS011;4956;50.996;13.716;2023-02-10T16:14:06;27.15;;;14.63;;
9834;SDS011;4956;50.996;13.716;2023-02-10T16:17:28;29.77;;;14.55;;
9834;SDS011;4956;50.996;13.716;2023-02-10T16:20:50;28.25;;;15.48;;
9834;SDS011;4956;50.996;13.716;2023-02-10T16:24:13;26.45;;;14.05;;
9834;SDS011;4956;50.996;13.716;2023-02-10T16:27:34;25.70;;;14.77;;
9834;SDS011;4956;50.996;13.716;2023-02-10T16:30:54;25.63;;;14.20;;
9834;SDS011;4956;50.996;13.716;2023-02-10T16:34:15;27.20;;;14.55;;
9834;SDS011;4956;50.996;13.716;2023-02-10T16:37:35;26.25;;;14.73;;
9834;SDS011;4956;50.996;13.716;2023-02-10T16:40:55;30.40;;;15.55;;
9834;SDS011;4956;50.996;13.716;2023-02-10T16:44:16;29.70;;;15.77;;
9834;SDS011;4956;50.996;13.716;2023-02-10T16:47:37;29.27;;;15.77;;
9834;SDS011;4956;50.996;13.716;2023-02-10T16:50:57;31.05;;;15.45;;
9834;SDS011;4956;50.996;13.716;2023-02-10T16:54:19;31.83;;;15.90;;
9834;SDS011;4956;50.996;13.716;2023-02-10T16:57:40;30.45;;;16.15;;
9834;SDS011;4956;50.996;13.716;2023-02-10T17:01:00;29.50;;;15.32;;
9834;SDS011;4956;50.996;13.716;2023-02-10T17:04:21;27.58;;;14.77;;
9834;SDS011;4956;50.996;13.716;2023-02-10T17:07:41;30.98;;;15.82;;
9834;SDS011;4956;50.996;13.716;2023-02-10T17:11:01;31.00;;;15.82;;
9834;SDS011;4956;50.996;13.716;2023-02-10T17:14:22;30.55;;;16.90;;
9834;SDS011;4956;50.996;13.716;2023-02-10T17:17:44;31.30;;;17.30;;
9834;SDS011;4956;50.996;13.716;2023-02-10T17:21:05;34.38;;;18.77;;
9834;SDS011;4956;50.996;13.716;2023-02-10T17:24:25;33.20;;;17.92;;
9834;SDS011;4956;50.996;13.716;2023-02-10T17:27:45;34.65;;;19.05;;
9834;SDS011;4956;50.996;13.716;2023-02-10T17:31:06;34.50;;;18.05;;
9834;SDS011;4956;50.996;13.716;2023-02-10T17:34:26;34.33;;;18.48;;
9834;SDS011;4956;50.996;13.716;2023-02-10T17:37:54;34.47;;;19.58;;
9834;SDS011;4956;50.996;13.716;2023-02-10T17:41:34;33.40;;;18.60;;
9834;SDS011;4956;50.996;13.716;2023-02-10T17:44:55;31.85;;;18.42;;
9834;SDS011;4956;50.996;13.716;2023-02-10T17:48:15;34.72;;;19.13;;
9834;SDS011;4956;50.996;13.716;2023-02-10T17:51:36;34.42;;;18.58;;
9834;SDS011;4956;50.996;13.716;2023-02-10T17:54:56;30.98;;;17.48;;
9834;SDS011;4956;50.996;13.716;2023-02-10T17:58:16;33.88;;;17.90;;
9834;SDS011;4956;50.996;13.716;2023-02-10T18:01:37;36.55;;;19.02;;
9834;SDS011;4956;50.996;13.716;2023-02-10T18:04:57;35.63;;;18.50;;
9834;SDS011;4956;50.996;13.716;2023-02-10T18:08:17;34.88;;;18.80;;
9834;SDS011;4956;50.996;13.716;2023-02-10T18:11:38;35.65;;;18.65;;
9834;SDS011;4956;50.996;13.716;2023-02-10T18:14:59;33.65;;;18.75;;
9834;SDS011;4956;50.996;13.716;2023-02-10T18:18:19;32.33;;;17.95;;
9834;SDS011;4956;50.996;13.716;2023-02-10T18:21:40;34.10;;;17.92;;
9834;SDS011;4956;50.996;13.716;2023-02-10T18:25:00;34.08;;;17.83;;
9834;SDS011;4956;50.996;13.716;2023-02-10T18:28:20;32.03;;;17.90;;
9834;SDS011;4956;50.996;13.716;2023-02-10T18:31:42;30.55;;;17.52;;
9834;SDS011;4956;50.996;13.716;2023-02-10T18:35:02;34.60;;;19.08;;
9834;SDS011;4956;50.996;13.716;2023-02-10T18:38:23;32.00;;;17.85;;
9834;SDS011;4956;50.996;13.716;2023-02-10T18:41:43;31.35;;;17.83;;
9834;SDS011;4956;50.996;13.716;2023-02-10T18:45:04;31.63;;;18.10;;
9834;SDS011;4956;50.996;13.716;2023-02-10T18:48:24;33.60;;;18.55;;
9834;SDS011;4956;50.996;13.716;2023-02-10T18:51:45;35.00;;;18.85;;
9834;SDS011;4956;50.996;13.716;2023-02-10T18:55:12;33.40;;;18.92;;
9834;SDS011;4956;50.996;13.716;2023-02-10T18:58:33;31.30;;;18.00;;
9834;SDS011;4956;50.996;13.716;2023-02-10T19:01:54;31.52;;;17.40;;
9834;SDS011;4956;50.996;13.716;2023-02-10T19:05:14;30.35;;;17.70;;
9834;SDS011;4956;50.996;13.716;2023-02-10T19:08:35;30.20;;;17.15;;
9834;SDS011;4956;50.996;13.716;2023-02-10T19:11:55;28.60;;;16.58;;
9834;SDS011;4956;50.996;13.716;2023-02-10T19:15:15;32.00;;;16.73;;
9834;SDS011;4956;50.996;13.716;2023-02-10T19:18:36;27.05;;;16.27;;
9834;SDS011;4956;50.996;13.716;2023-02-10T19:21:56;28.00;;;16.13;;
9834;SDS011;4956;50.996;13.716;2023-02-10T19:25:17;25.85;;;15.40;;
9834;SDS011;4956;50.996;13.716;2023-02-10T19:28:37;26.30;;;15.40;;
9834;SDS011;4956;50.996;13.716;2023-02-10T19:31:58;25.98;;;15.35;;
9834;SDS011;4956;50.996;13.716;2023-02-10T19:35:18;27.58;;;15.38;;
9834;SDS011;4956;50.996;13.716;2023-02-10T19:38:38;26.70;;;15.40;;
9834;SDS011;4956;50.996;13.716;2023-02-10T19:41:59;27.95;;;15.35;;
9834;SDS011;4956;50.996;13.716;2023-02-10T19:45:21;24.60;;;14.50;;
9834;SDS011;4956;50.996;13.716;2023-02-10T19:48:42;24.65;;;14.00;;
9834;SDS011;4956;50.996;13.716;2023-02-10T19:52:03;26.52;;;14.90;;
9834;SDS011;4956;50.996;13.716;2023-02-10T19:55:23;24.45;;;13.93;;
9834;SDS011;4956;50.996;13.716;2023-02-10T19:58:44;21.58;;;13.32;;
9834;SDS011;4956;50.996;13.716;2023-02-10T20:02:04;22.65;;;13.20;;
9834;SDS011;4956;50.996;13.716;2023-02-10T20:05:24;22.75;;;13.18;;
9834;SDS011;4956;50.996;13.716;2023-02-10T20:08:45;22.15;;;13.30;;
9834;SDS011;4956;50.996;13.716;2023-02-10T20:12:05;22.30;;;12.48;;
9834;SDS011;4956;50.996;13.716;2023-02-10T20:15:26;23.65;;;13.77;;
9834;SDS011;4956;50.996;13.716;2023-02-10T20:18:47;20.95;;;12.40;;
9834;SDS011;4956;50.996;13.716;2023-02-10T20:22:08;24.02;;;13.30;;
9834;SDS011;4956;50.996;13.716;2023-02-10T20:25:29;22.02;;;12.73;;
9834;SDS011;4956;50.996;13.716;2023-02-10T20:28:49;23.08;;;12.45;;
9834;SDS011;4956;50.996;13.716;2023-02-10T20:32:10;21.50;;;12.57;;
9834;SDS011;4956;50.996;13.716;2023-02-10T20:35:33;21.55;;;12.25;;
9834;SDS011;4956;50.996;13.716;2023-02-10T20:38:55;23.42;;;12.43;;
9834;SDS011;4956;50.996;13.716;2023-02-10T20:42:19;22.67;;;12.68;;
9834;SDS011;4956;50.996;13.716;2023-02-10T20:45:40;22.17;;;12.48;;
9834;SDS011;4956;50.996;13.716;2023-02-10T20:49:00;23.30;;;12.60;;
9834;SDS011;4956;50.996;13.716;2023-02-10T20:52:23;24.15;;;12.65;;
9834;SDS011;4956;50.996;13.716;2023-02-10T20:55:44;20.70;;;12.40;;
9834;SDS011;4956;50.996;13.716;2023-02-10T20:59:06;24.60;;;13.75;;
9834;SDS011;4956;50.996;13.716;2023-02-10T21:02:26;24.90;;;14.43;;
9834;SDS011;4956;50.996;13.716;2023-02-10T21:05:46;25.70;;;14.73;;
9834;SDS011;4956;50.996;13.716;2023-02-10T21:09:09;27.48;;;15.68;;
9834;SDS011;4956;50.996;13.716;2023-02-10T21:12:30;26.98;;;15.88;;
9834;SDS011;4956;50.996;13.716;2023-02-10T21:15:50;27.70;;;16.10;;
9834;SDS011;4956;50.996;13.716;2023-02-10T21:19:11;29.13;;;17.17;;
9834;SDS011;4956;50.996;13.716;2023-02-10T21:22:31;31.98;;;17.48;;
9834;SDS011;4956;50.996;13.716;2023-02-10T21:25:54;32.50;;;18.55;;
9834;SDS011;4956;50.996;13.716;2023-02-10T21:29:15;32.97;;;18.42;;
9834;SDS011;4956;50.996;13.716;2023-02-10T21:32:36;35.70;;;19.30;;
9834;SDS011;4956;50.996;13.716;2023-02-10T21:35:56;33.83;;;17.83;;
9834;SDS011;4956;50.996;13.716;2023-02-10T21:39:16;36.72;;;19.52;;
9834;SDS011;4956;50.996;13.716;2023-02-10T21:42:36;37.22;;;19.92;;
9834;SDS011;4956;50.996;13.716;2023-02-10T21:45:57;35.88;;;19.90;;